Time;durP1;ratioP1;P1;durP2;ratioP2;P2;SDS_P1;SDS_P2;PMS_P1;PMS_P2;Temp;Humidity;BMP_temperature;BMP_pressure;BME280_temperature;BME280_humidity;BME280_pressure;Samples;Min_cycle;Max_cycle;Signal;HPM_P1;HPM_P2
2023/09/03 00:01:00;;;;;;;21.70;12.07;;;15.60;99.90;;;;;;4975242;28;20557;-79
2023/09/03 00:03:25;;;;;;;23.03;12.97;;;15.60;99.90;;;;;;4975290;28;20389;-78
2023/09/03 00:05:56;;;;;;;21.00;12.33;;;15.70;99.90;;;;;;4977031;28;20186;-79
2023/09/03 00:08:22;;;;;;;17.20;11.77;;;15.60;99.90;;;;;;4977226;28;20158;-79
2023/09/03 00:10:49;;;;;;;20.10;12.73;;;15.50;99.90;;;;;;4976417;28;20216;-78
2023/09/03 00:13:14;;;;;;;23.40;12.93;;;15.40;99.90;;;;;;4975376;28;20264;-78
2023/09/03 00:15:40;;;;;;;17.03;11.80;;;15.50;99.90;;;;;;4975463;28;20186;-80
2023/09/03 00:18:07;;;;;;;20.20;12.27;;;15.40;99.90;;;;;;4975714;28;20645;-79
2023/09/03 00:20:32;;;;;;;20.57;12.00;;;15.40;99.90;;;;;;4975624;28;20178;-79
2023/09/03 00:22:58;;;;;;;17.60;11.93;;;15.40;99.90;;;;;;4975394;28;20206;-79
2023/09/03 00:25:23;;;;;;;22.20;12.13;;;15.30;99.90;;;;;;4977317;28;20562;-79
2023/09/03 00:27:49;;;;;;;16.90;11.37;;;15.30;99.90;;;;;;4977089;28;20262;-79
2023/09/03 00:30:14;;;;;;;17.70;11.33;;;15.30;99.90;;;;;;4975377;28;20274;-79
2023/09/03 00:32:40;;;;;;;21.50;11.70;;;15.20;99.90;;;;;;4974418;28;20229;-79
2023/09/03 00:35:06;;;;;;;15.27;11.40;;;15.20;99.90;;;;;;4975677;28;20193;-79
2023/09/03 00:37:31;;;;;;;17.83;12.30;;;15.10;99.90;;;;;;4975487;28;20658;-78
2023/09/03 00:39:57;;;;;;;19.40;12.00;;;15.10;99.90;;;;;;4976620;28;20174;-79
2023/09/03 00:42:22;;;;;;;13.17;11.23;;;15.00;99.90;;;;;;4976542;28;20570;-78
2023/09/03 00:44:48;;;;;;;17.67;11.77;;;14.90;99.90;;;;;;4975466;28;20181;-81
2023/09/03 00:47:13;;;;;;;21.67;10.00;;;14.90;99.90;;;;;;4975842;28;20558;-79
2023/09/03 00:49:42;;;;;;;15.37;9.60;;;14.90;99.90;;;;;;4975123;28;20213;-79
2023/09/03 00:52:08;;;;;;;16.90;10.70;;;14.90;99.90;;;;;;4977367;28;20217;-79
2023/09/03 00:54:34;;;;;;;26.80;10.20;;;15.00;99.90;;;;;;4975837;28;20272;-79
2023/09/03 00:57:01;;;;;;;13.27;10.47;;;14.90;99.90;;;;;;4975615;28;20237;-79
2023/09/03 00:59:29;;;;;;;19.77;11.17;;;14.90;99.90;;;;;;4975529;28;20182;-79
2023/09/03 01:01:55;;;;;;;15.53;10.67;;;14.90;99.90;;;;;;4975964;28;20201;-79
2023/09/03 01:04:20;;;;;;;21.37;11.30;;;14.90;99.90;;;;;;4975456;28;20178;-81
2023/09/03 01:06:51;;;;;;;18.33;10.13;;;14.90;99.90;;;;;;4972820;28;20198;-79
2023/09/03 01:09:17;;;;;;;15.90;10.17;;;14.80;99.90;;;;;;4975110;28;20178;-79
2023/09/03 01:12:10;;;;;;;20.10;11.67;;;14.90;99.90;;;;;;4973729;28;20220;-78
2023/09/03 01:14:57;;;;;;;16.30;10.43;;;14.80;99.90;;;;;;4974778;28;20213;-79
2023/09/03 01:17:33;;;;;;;14.03;9.70;;;14.80;99.90;;;;;;4974570;28;20186;-79
2023/09/03 01:20:21;;;;;;;18.07;10.13;;;14.80;99.90;;;;;;4976222;28;20170;-79
2023/09/03 01:23:12;;;;;;;19.80;10.60;;;14.70;99.90;;;;;;4972985;28;20305;-78
2023/09/03 01:26:02;;;;;;;21.47;10.27;;;14.60;99.90;;;;;;4975888;28;20205;-79
2023/09/03 01:28:35;;;;;;;15.37;10.37;;;14.60;99.90;;;;;;4974855;28;20171;-79
2023/09/03 01:31:03;;;;;;;13.73;10.47;;;14.60;99.90;;;;;;4976184;28;20178;-78
2023/09/03 01:33:31;;;;;;;18.63;11.40;;;14.60;99.90;;;;;;4976169;28;20198;-78
2023/09/03 01:35:59;;;;;;;15.23;10.60;;;14.50;99.90;;;;;;4974985;28;20178;-79
2023/09/03 01:38:25;;;;;;;16.13;10.20;;;14.50;99.90;;;;;;4975016;28;20178;-78
2023/09/03 01:40:53;;;;;;;14.43;9.77;;;14.50;99.90;;;;;;4975698;28;20175;-79
2023/09/03 01:43:19;;;;;;;19.97;10.83;;;14.40;99.90;;;;;;4976342;28;20225;-78
2023/09/03 01:45:53;;;;;;;15.17;10.80;;;14.40;99.90;;;;;;4973009;28;20655;-78
2023/09/03 01:48:43;;;;;;;14.63;9.90;;;14.40;99.90;;;;;;4974413;28;20173;-79
2023/09/03 01:51:54;;;;;;;14.60;10.83;;;14.40;99.90;;;;;;4973178;28;20208;-80
2023/09/03 01:54:27;;;;;;;20.17;11.20;;;14.40;99.90;;;;;;4952035;28;20273;-79
2023/09/03 01:57:01;;;;;;;14.27;10.23;;;14.40;99.90;;;;;;4974800;28;20237;-79
2023/09/03 01:59:33;;;;;;;16.10;10.50;;;14.50;99.90;;;;;;4976384;28;20186;-78
2023/09/03 02:01:59;;;;;;;20.40;10.80;;;14.50;99.90;;;;;;4978016;28;20199;-79
2023/09/03 02:04:25;;;;;;;20.63;10.50;;;14.40;99.90;;;;;;4978018;28;20185;-79
2023/09/03 02:06:50;;;;;;;24.97;11.67;;;14.50;99.90;;;;;;4978647;28;20178;-79
2023/09/03 02:09:16;;;;;;;24.53;11.53;;;14.40;99.90;;;;;;4979483;28;20228;-79
2023/09/03 02:11:42;;;;;;;23.70;11.93;;;14.40;99.90;;;;;;4979351;28;20214;-79
2023/09/03 02:14:07;;;;;;;19.50;11.23;;;14.30;99.90;;;;;;4979553;28;20175;-79
2023/09/03 02:16:33;;;;;;;22.23;11.30;;;14.30;99.90;;;;;;4977559;28;20535;-79
2023/09/03 02:18:58;;;;;;;18.67;11.80;;;14.30;99.90;;;;;;4978450;28;20557;-79
2023/09/03 02:21:24;;;;;;;21.27;11.90;;;14.30;99.90;;;;;;4977886;28;20225;-79
2023/09/03 02:23:49;;;;;;;17.17;10.33;;;14.30;99.90;;;;;;4977756;28;20182;-79
2023/09/03 02:26:15;;;;;;;17.20;10.97;;;14.30;99.90;;;;;;4979469;28;20186;-79
2023/09/03 02:28:40;;;;;;;19.10;10.93;;;14.30;99.90;;;;;;4977945;28;20565;-79
2023/09/03 02:31:06;;;;;;;26.77;13.17;;;14.20;99.90;;;;;;4978733;28;20190;-78
2023/09/03 02:33:31;;;;;;;24.97;13.93;;;14.30;99.90;;;;;;4978448;28;20178;-79
2023/09/03 02:35:57;;;;;;;20.70;13.87;;;14.20;99.90;;;;;;4979204;28;20253;-79
2023/09/03 02:38:23;;;;;;;28.70;14.30;;;14.10;99.90;;;;;;4977791;28;20178;-79
2023/09/03 02:40:48;;;;;;;27.00;15.30;;;14.20;99.90;;;;;;4979251;28;20175;-79
2023/09/03 02:43:14;;;;;;;28.67;15.73;;;14.20;99.90;;;;;;4977787;28;20210;-79
2023/09/03 02:45:40;;;;;;;28.20;15.73;;;14.20;99.90;;;;;;4979499;28;20579;-79
2023/09/03 02:48:11;;;;;;;25.23;15.40;;;14.20;99.90;;;;;;4977467;28;20182;-80
2023/09/03 02:50:37;;;;;;;27.53;16.27;;;14.20;99.90;;;;;;4979189;28;20167;-78
2023/09/03 02:53:07;;;;;;;28.40;16.60;;;14.10;99.90;;;;;;4977742;28;20222;-79
2023/09/03 02:55:33;;;;;;;24.13;16.33;;;14.10;99.90;;;;;;4978797;28;20175;-79
2023/09/03 02:57:59;;;;;;;28.53;17.07;;;14.10;99.90;;;;;;4978900;28;20266;-79
2023/09/03 03:00:25;;;;;;;27.20;17.37;;;14.10;99.90;;;;;;4977597;28;20181;-79
2023/09/03 03:02:52;;;;;;;25.33;16.00;;;14.10;99.90;;;;;;4977972;28;20587;-79
2023/09/03 03:05:18;;;;;;;26.47;16.40;;;14.10;99.90;;;;;;4977211;28;20240;-79
2023/09/03 03:07:43;;;;;;;21.17;14.90;;;14.10;99.90;;;;;;4977278;28;20190;-79
2023/09/03 03:10:10;;;;;;;23.00;16.57;;;14.10;99.90;;;;;;4977926;28;20186;-79
2023/09/03 03:12:35;;;;;;;25.13;16.37;;;14.00;99.90;;;;;;4977000;28;20225;-79
2023/09/03 03:15:01;;;;;;;24.67;15.27;;;13.80;99.90;;;;;;4977031;28;20174;-79
2023/09/03 03:17:27;;;;;;;25.97;16.17;;;13.90;99.90;;;;;;4978369;28;20313;-79
2023/09/03 03:19:52;;;;;;;27.17;16.07;;;13.90;99.90;;;;;;4977541;28;20533;-79
2023/09/03 03:22:18;;;;;;;23.33;15.33;;;13.90;99.90;;;;;;4976872;28;20580;-79
2023/09/03 03:24:43;;;;;;;27.37;15.93;;;13.90;99.90;;;;;;4977975;28;20193;-79
2023/09/03 03:27:09;;;;;;;28.40;15.60;;;13.90;99.90;;;;;;4978220;28;20175;-80
2023/09/03 03:29:35;;;;;;;30.13;15.90;;;13.90;99.90;;;;;;4976593;28;20638;-79
2023/09/03 03:32:00;;;;;;;25.50;15.47;;;13.80;99.90;;;;;;4976864;28;20213;-78
2023/09/03 03:34:26;;;;;;;25.03;17.53;;;13.80;99.90;;;;;;4976478;28;20182;-79
2023/09/03 03:36:52;;;;;;;28.07;17.97;;;13.70;99.90;;;;;;4976707;28;20694;-79
2023/09/03 03:39:19;;;;;;;27.47;17.33;;;13.70;99.90;;;;;;4975776;28;20186;-79
2023/09/03 03:41:45;;;;;;;29.37;17.60;;;13.80;99.90;;;;;;4977619;28;20190;-79
2023/09/03 03:44:11;;;;;;;32.83;18.43;;;13.80;99.90;;;;;;4976277;28;20232;-79
2023/09/03 03:46:36;;;;;;;25.10;15.97;;;13.80;99.90;;;;;;4975527;28;20189;-78
2023/09/03 03:49:03;;;;;;;22.63;17.00;;;13.80;99.90;;;;;;4975674;28;20186;-79
2023/09/03 03:51:28;;;;;;;30.17;17.23;;;13.70;99.90;;;;;;4977843;28;20234;-79
2023/09/03 03:53:55;;;;;;;22.23;16.63;;;13.70;99.90;;;;;;4976261;28;20190;-78
2023/09/03 03:56:21;;;;;;;28.40;17.33;;;13.70;99.90;;;;;;4977625;28;20213;-79
2023/09/03 03:58:46;;;;;;;33.67;19.90;;;13.70;99.90;;;;;;4977160;28;20179;-78
2023/09/03 04:01:15;;;;;;;27.03;16.57;;;13.80;99.90;;;;;;4976152;28;20694;-80
2023/09/03 04:03:41;;;;;;;28.17;16.33;;;13.80;99.90;;;;;;4977795;28;20616;-79
2023/09/03 04:06:07;;;;;;;29.63;16.07;;;13.80;99.90;;;;;;4977402;28;20206;-79
2023/09/03 04:08:34;;;;;;;27.50;14.53;;;13.80;99.90;;;;;;4975924;28;20285;-79
2023/09/03 04:11:08;;;;;;;20.33;13.90;;;13.90;99.90;;;;;;4977288;28;20681;-79
2023/09/03 04:13:34;;;;;;;25.93;14.13;;;13.90;99.90;;;;;;4977316;28;20250;-79
2023/09/03 04:16:04;;;;;;;24.10;15.90;;;13.80;99.90;;;;;;4974969;28;20178;-79
2023/09/03 04:18:30;;;;;;;25.90;16.67;;;13.80;99.90;;;;;;4975462;28;20270;-79
2023/09/03 04:20:57;;;;;;;25.77;16.97;;;13.80;99.90;;;;;;4976984;28;20701;-79
2023/09/03 04:23:23;;;;;;;26.50;17.60;;;13.80;99.90;;;;;;4975822;28;20317;-79
2023/09/03 04:25:51;;;;;;;27.57;17.90;;;13.80;99.90;;;;;;4977250;28;20225;-79
2023/09/03 04:28:17;;;;;;;29.13;18.00;;;13.80;99.90;;;;;;4975061;28;20186;-79
2023/09/03 04:30:42;;;;;;;25.33;17.03;;;13.80;99.90;;;;;;4976796;28;20185;-79
2023/09/03 04:33:08;;;;;;;29.17;16.40;;;13.80;99.90;;;;;;4974391;28;20284;-79
2023/09/03 04:35:38;;;;;;;22.33;15.47;;;13.80;99.90;;;;;;4975668;28;20292;-79
2023/09/03 04:38:04;;;;;;;27.03;15.90;;;13.90;99.90;;;;;;4976935;28;20701;-79
2023/09/03 04:40:37;;;;;;;28.43;14.37;;;13.80;99.90;;;;;;4975523;28;20178;-79
2023/09/03 04:43:03;;;;;;;22.87;15.50;;;13.80;99.90;;;;;;4976716;28;20249;-79
2023/09/03 04:45:30;;;;;;;23.57;14.60;;;13.80;99.90;;;;;;4975998;28;20201;-80
2023/09/03 04:47:56;;;;;;;25.33;15.20;;;13.90;99.90;;;;;;4977350;28;20207;-79
2023/09/03 04:50:25;;;;;;;25.80;16.17;;;13.70;99.90;;;;;;4975672;28;20204;-79
2023/09/03 04:52:54;;;;;;;31.00;18.43;;;13.70;99.90;;;;;;4975242;28;20210;-79
2023/09/03 04:55:20;;;;;;;30.33;17.37;;;13.70;99.90;;;;;;4976169;28;20276;-80
2023/09/03 04:57:45;;;;;;;26.50;17.70;;;13.70;99.90;;;;;;4976895;28;20229;-79
2023/09/03 05:00:11;;;;;;;31.63;17.50;;;13.60;99.90;;;;;;4975011;28;20528;-79
2023/09/03 05:02:37;;;;;;;23.87;16.27;;;13.50;99.90;;;;;;4974948;28;20674;-79
2023/09/03 05:05:03;;;;;;;24.67;17.17;;;13.50;99.90;;;;;;4975419;28;20292;-81
2023/09/03 05:07:29;;;;;;;26.00;17.20;;;13.50;99.90;;;;;;4974989;28;20189;-80
2023/09/03 05:09:55;;;;;;;23.07;16.50;;;13.40;99.90;;;;;;4975395;28;20186;-79
2023/09/03 05:12:21;;;;;;;27.70;16.37;;;13.40;99.90;;;;;;4975066;28;20218;-79
2023/09/03 05:14:47;;;;;;;25.40;15.70;;;13.50;99.90;;;;;;4976619;28;20181;-80
2023/09/03 05:17:12;;;;;;;28.67;16.20;;;13.40;99.90;;;;;;4976466;28;20178;-79
2023/09/03 05:19:39;;;;;;;25.57;16.80;;;13.40;99.90;;;;;;4974015;28;20178;-79
2023/09/03 05:22:04;;;;;;;27.03;17.20;;;13.40;99.90;;;;;;4976907;28;20724;-80
2023/09/03 05:24:30;;;;;;;22.60;16.60;;;13.40;99.90;;;;;;4974845;28;20182;-80
2023/09/03 05:26:56;;;;;;;23.60;15.23;;;13.40;99.90;;;;;;4975195;28;20185;-79
2023/09/03 05:29:21;;;;;;;25.80;16.33;;;13.40;99.90;;;;;;4976880;28;20175;-79
2023/09/03 05:31:47;;;;;;;25.73;14.77;;;13.40;99.90;;;;;;4974995;28;20610;-80
2023/09/03 05:34:12;;;;;;;24.37;15.47;;;13.40;99.90;;;;;;4977293;28;20565;-80
2023/09/03 05:36:39;;;;;;;21.83;15.83;;;13.40;99.90;;;;;;4979238;28;20647;-80
2023/09/03 05:39:04;;;;;;;29.50;16.80;;;13.40;99.90;;;;;;4980465;28;20170;-78
2023/09/03 05:41:31;;;;;;;34.37;16.13;;;13.50;99.90;;;;;;4980080;28;20201;-79
2023/09/03 05:43:57;;;;;;;26.23;15.53;;;13.50;99.90;;;;;;4982136;28;20284;-79
2023/09/03 05:46:23;;;;;;;28.80;15.90;;;13.50;99.90;;;;;;4986024;28;20209;-79
2023/09/03 05:48:52;;;;;;;24.57;15.30;;;13.60;99.90;;;;;;4987437;28;20273;-79
2023/09/03 05:51:17;;;;;;;25.13;15.00;;;13.60;99.90;;;;;;4982742;28;20186;-79
2023/09/03 05:53:43;;;;;;;22.53;15.37;;;13.60;99.90;;;;;;4980655;28;20638;-80
2023/09/03 05:56:10;;;;;;;26.40;15.53;;;13.60;99.90;;;;;;4980671;28;20174;-79
2023/09/03 05:58:36;;;;;;;24.40;15.57;;;13.60;99.90;;;;;;4978615;28;20178;-79
2023/09/03 06:01:04;;;;;;;23.67;15.57;;;13.70;99.90;;;;;;4966437;28;20194;-80
2023/09/03 06:03:30;;;;;;;25.13;15.90;;;13.60;99.90;;;;;;4960381;29;20659;-80
2023/09/03 06:05:55;;;;;;;20.90;14.70;;;13.70;99.90;;;;;;4959786;29;20190;-79
2023/09/03 06:08:21;;;;;;;24.57;14.83;;;13.70;99.90;;;;;;4960572;29;20179;-80
2023/09/03 06:10:46;;;;;;;27.80;14.97;;;13.70;99.90;;;;;;4965180;28;20723;-81
2023/09/03 06:13:12;;;;;;;27.07;14.23;;;13.80;99.90;;;;;;4965808;28;20219;-81
2023/09/03 06:15:37;;;;;;;21.63;14.63;;;13.80;99.90;;;;;;4968807;28;20346;-82
2023/09/03 06:18:03;;;;;;;25.33;15.80;;;13.70;99.90;;;;;;4984871;28;20218;-82
2023/09/03 06:20:29;;;;;;;23.47;15.33;;;13.90;99.90;;;;;;4984666;28;20177;-81
2023/09/03 06:22:54;;;;;;;27.73;15.57;;;14.00;99.90;;;;;;4986418;28;20277;-82
2023/09/03 06:25:20;;;;;;;24.93;15.37;;;14.10;99.90;;;;;;4985076;28;20269;-82
2023/09/03 06:27:46;;;;;;;24.10;15.33;;;14.10;99.90;;;;;;4987226;28;20650;-81
2023/09/03 06:30:11;;;;;;;24.90;15.27;;;14.20;99.90;;;;;;4987813;28;20178;-83
2023/09/03 06:32:37;;;;;;;21.83;14.37;;;14.20;99.90;;;;;;4985226;28;20209;-83
2023/09/03 06:35:04;;;;;;;24.60;15.20;;;14.30;99.90;;;;;;4987244;28;20186;-82
2023/09/03 06:37:29;;;;;;;22.20;14.67;;;14.30;99.90;;;;;;4984870;28;20179;-82
2023/09/03 06:39:55;;;;;;;23.33;15.07;;;14.40;99.90;;;;;;4987933;28;20171;-82
2023/09/03 06:42:21;;;;;;;23.67;15.80;;;14.50;99.90;;;;;;4986487;28;20213;-82
2023/09/03 06:44:47;;;;;;;22.37;16.30;;;14.50;99.90;;;;;;4984634;28;20193;-82
2023/09/03 06:47:12;;;;;;;25.50;15.73;;;14.60;99.90;;;;;;4983483;28;20186;-79
2023/09/03 06:49:38;;;;;;;30.70;16.27;;;14.70;99.90;;;;;;4980439;28;20246;-79
2023/09/03 06:52:03;;;;;;;25.80;17.40;;;14.70;99.90;;;;;;4981330;28;20206;-79
2023/09/03 06:54:29;;;;;;;26.03;16.47;;;14.80;99.90;;;;;;4980210;28;20198;-81
2023/09/03 06:56:54;;;;;;;28.43;16.80;;;14.90;99.90;;;;;;4981388;28;20249;-79
2023/09/03 06:59:23;;;;;;;35.57;21.83;;;14.90;99.90;;;;;;4981545;28;20178;-79
2023/09/03 07:01:50;;;;;;;34.50;20.10;;;15.00;99.90;;;;;;4980640;28;20198;-79
2023/09/03 07:04:15;;;;;;;30.00;19.00;;;15.10;99.90;;;;;;4977204;28;20356;-82
2023/09/03 07:06:41;;;;;;;35.67;22.17;;;15.10;99.90;;;;;;4960519;29;20210;-80
2023/09/03 07:09:12;;;;;;;38.17;20.90;;;15.20;99.90;;;;;;4960651;29;20686;-80
2023/09/03 07:11:38;;;;;;;34.33;22.90;;;15.30;99.90;;;;;;4961432;28;20702;-80
2023/09/03 07:14:11;;;;;;;36.43;21.90;;;15.30;99.90;;;;;;4962855;29;20223;-80
2023/09/03 07:16:39;;;;;;;35.70;24.03;;;15.40;99.90;;;;;;4961998;29;20505;-80
2023/09/03 07:19:09;;;;;;;32.37;22.83;;;15.50;99.90;;;;;;4963195;29;20198;-80
2023/09/03 07:21:38;;;;;;;49.60;31.70;;;15.60;99.90;;;;;;4971447;28;20308;-80
2023/09/03 07:24:04;;;;;;;36.47;23.23;;;15.70;99.90;;;;;;4980924;28;20197;-79
2023/09/03 07:26:33;;;;;;;37.87;26.57;;;15.70;99.90;;;;;;4982807;28;20694;-81
2023/09/03 07:29:03;;;;;;;47.60;32.07;;;15.60;99.90;;;;;;4982534;28;20175;-80
2023/09/03 07:31:40;;;;;;;49.13;32.87;;;15.90;99.90;;;;;;4981787;28;20210;-80
2023/09/03 07:34:14;;;;;;;41.10;29.20;;;15.90;99.90;;;;;;4983201;28;20169;-79
2023/09/03 07:36:49;;;;;;;35.93;24.23;;;16.00;99.90;;;;;;4982531;28;20166;-80
2023/09/03 07:39:28;;;;;;;43.63;26.67;;;16.00;99.90;;;;;;4980881;28;20189;-80
2023/09/03 07:41:56;;;;;;;49.30;29.77;;;16.00;99.90;;;;;;4982234;28;20332;-80
2023/09/03 07:44:25;;;;;;;46.90;32.00;;;16.40;99.90;;;;;;4983474;28;20270;-80
2023/09/03 07:47:02;;;;;;;47.20;31.37;;;16.20;99.90;;;;;;4983347;28;20196;-80
2023/09/03 07:49:31;;;;;;;48.30;31.83;;;16.30;99.90;;;;;;4983835;28;20206;-80
2023/09/03 07:52:07;;;;;;;44.27;30.33;;;16.30;99.90;;;;;;4984452;28;20210;-80
2023/09/03 07:54:33;;;;;;;46.20;29.63;;;16.40;99.90;;;;;;4984986;28;20178;-80
2023/09/03 07:57:03;;;;;;;46.03;30.13;;;16.50;99.90;;;;;;4985379;28;20178;-80
2023/09/03 07:59:29;;;;;;;42.07;30.17;;;17.00;99.90;;;;;;4985865;28;20186;-80
2023/09/03 08:01:58;;;;;;;43.93;31.97;;;16.80;99.90;;;;;;4988514;28;20233;-79
2023/09/03 08:04:24;;;;;;;38.33;29.60;;;16.60;99.90;;;;;;4992653;28;20182;-79
2023/09/03 08:06:49;;;;;;;38.60;28.77;;;16.70;99.90;;;;;;4981801;28;20186;-80
2023/09/03 08:09:15;;;;;;;35.20;25.73;;;16.80;99.90;;;;;;4980561;28;20532;-80
2023/09/03 08:11:40;;;;;;;35.87;26.67;;;16.90;99.90;;;;;;4981046;28;20213;-80
2023/09/03 08:14:06;;;;;;;36.13;27.00;;;16.90;99.90;;;;;;4979797;28;20198;-79
2023/09/03 08:16:32;;;;;;;36.27;27.27;;;17.00;99.90;;;;;;4978953;28;20178;-80
2023/09/03 08:18:57;;;;;;;33.30;25.83;;;17.20;99.90;;;;;;4979832;28;20186;-79
2023/09/03 08:21:23;;;;;;;25.70;22.77;;;17.20;99.90;;;;;;4979742;28;20198;-79
2023/09/03 08:23:48;;;;;;;28.57;23.33;;;17.20;99.90;;;;;;4979663;28;20228;-79
2023/09/03 08:26:14;;;;;;;24.33;21.63;;;17.30;99.90;;;;;;4979581;28;20268;-79
2023/09/03 08:28:39;;;;;;;22.90;20.07;;;17.30;99.90;;;;;;4977927;28;20193;-79
2023/09/03 08:31:05;;;;;;;24.37;19.03;;;17.30;99.90;;;;;;4976516;28;20210;-81
2023/09/03 08:33:30;;;;;;;22.80;19.53;;;17.40;99.90;;;;;;4977757;28;20655;-79
2023/09/03 08:35:56;;;;;;;22.17;18.07;;;17.60;99.90;;;;;;4978741;28;20184;-79
2023/09/03 08:38:22;;;;;;;18.77;16.87;;;17.60;99.90;;;;;;4976205;28;20265;-80
2023/09/03 08:40:47;;;;;;;21.10;18.90;;;17.60;99.90;;;;;;4978072;28;20241;-79
2023/09/03 08:43:17;;;;;;;19.50;17.43;;;17.60;99.90;;;;;;4977456;28;20273;-79
2023/09/03 08:45:54;;;;;;;16.07;14.37;;;17.70;99.90;;;;;;4976065;28;20216;-79
2023/09/03 08:48:19;;;;;;;18.13;16.03;;;17.80;99.90;;;;;;4976728;28;20189;-79
2023/09/03 08:50:46;;;;;;;17.87;14.13;;;17.90;99.90;;;;;;4977734;28;20591;-79
2023/09/03 08:53:13;;;;;;;14.73;12.73;;;18.00;99.90;;;;;;4976050;28;20308;-79
2023/09/03 08:55:41;;;;;;;14.53;12.63;;;18.00;99.90;;;;;;4976213;28;20682;-80
2023/09/03 08:58:07;;;;;;;14.70;13.37;;;18.10;99.90;;;;;;4976974;28;20246;-79
2023/09/03 09:00:33;;;;;;;14.90;13.33;;;18.10;99.90;;;;;;4978661;28;20206;-79
2023/09/03 09:03:06;;;;;;;13.97;11.20;;;18.10;99.90;;;;;;4976295;28;20209;-80
2023/09/03 09:05:33;;;;;;;17.40;11.60;;;18.20;99.90;;;;;;4975672;28;20205;-79
2023/09/03 09:08:01;;;;;;;13.57;10.50;;;18.30;99.90;;;;;;4977008;28;20276;-80
2023/09/03 09:10:31;;;;;;;11.67;10.23;;;18.30;99.90;;;;;;4977067;28;20221;-79
2023/09/03 09:13:03;;;;;;;11.73;10.37;;;18.30;99.90;;;;;;4977273;28;20233;-79
2023/09/03 09:15:29;;;;;;;11.43;9.60;;;18.40;99.90;;;;;;4979031;28;20650;-80
2023/09/03 09:17:55;;;;;;;11.57;9.27;;;18.40;99.90;;;;;;4979193;28;20174;-79
2023/09/03 09:20:20;;;;;;;13.63;9.80;;;18.40;99.90;;;;;;4977414;28;20166;-80
2023/09/03 09:22:47;;;;;;;13.03;10.27;;;18.40;99.90;;;;;;4974934;28;20221;-82
2023/09/03 09:25:24;;;;;;;13.57;9.20;;;18.60;99.90;;;;;;4977666;28;20193;-79
2023/09/03 09:27:52;;;;;;;15.37;9.93;;;18.50;99.90;;;;;;4978561;28;20174;-79
2023/09/03 09:30:19;;;;;;;10.97;7.80;;;18.60;99.90;;;;;;4975718;28;20178;-81
2023/09/03 09:32:45;;;;;;;11.43;9.50;;;18.60;99.90;;;;;;4976455;28;20209;-79
2023/09/03 09:35:24;;;;;;;10.60;9.43;;;18.70;99.90;;;;;;4979164;28;20190;-80
2023/09/03 09:37:50;;;;;;;12.63;9.60;;;18.80;99.90;;;;;;4976853;28;20244;-80
2023/09/03 09:40:26;;;;;;;13.00;8.00;;;18.80;99.90;;;;;;4976673;28;20179;-80
2023/09/03 09:42:53;;;;;;;11.47;8.30;;;19.00;99.90;;;;;;4977912;28;20724;-79
2023/09/03 09:45:19;;;;;;;9.93;7.33;;;19.10;99.90;;;;;;4975502;28;20206;-80
2023/09/03 09:47:46;;;;;;;9.43;7.27;;;19.10;99.90;;;;;;4976497;28;20183;-79
2023/09/03 09:50:11;;;;;;;9.20;8.00;;;19.20;99.90;;;;;;4977843;28;20741;-79
2023/09/03 09:52:38;;;;;;;8.03;6.80;;;19.30;99.90;;;;;;4977490;28;20214;-80
2023/09/03 09:55:04;;;;;;;9.77;7.90;;;19.30;99.90;;;;;;4976161;28;20183;-80
2023/09/03 09:57:30;;;;;;;12.83;9.30;;;19.40;99.90;;;;;;4977519;28;20178;-80
2023/09/03 10:00:00;;;;;;;9.87;7.97;;;19.50;99.90;;;;;;4978036;28;20185;-79
2023/09/03 10:02:26;;;;;;;9.30;7.20;;;19.60;99.90;;;;;;4977159;28;20230;-79
2023/09/03 10:04:53;;;;;;;10.67;6.63;;;19.60;99.90;;;;;;4978655;28;20185;-80
2023/09/03 10:07:19;;;;;;;7.23;5.53;;;19.50;99.90;;;;;;4978550;28;20182;-80
2023/09/03 10:09:45;;;;;;;5.83;5.10;;;19.60;99.90;;;;;;4979186;28;20274;-80
2023/09/03 10:12:12;;;;;;;6.17;5.37;;;19.80;99.90;;;;;;4977831;28;20210;-80
2023/09/03 10:14:39;;;;;;;9.70;5.40;;;19.80;99.90;;;;;;4980028;28;20286;-80
2023/09/03 10:17:06;;;;;;;6.33;5.03;;;19.70;99.90;;;;;;4983062;28;20182;-79
2023/09/03 10:19:55;;;;;;;7.37;6.27;;;19.90;99.90;;;;;;4976336;28;20186;-80
2023/09/03 10:22:23;;;;;;;5.83;4.60;;;20.00;99.90;;;;;;4978661;28;20651;-80
2023/09/03 10:25:04;;;;;;;9.00;4.13;;;20.00;99.90;;;;;;4977469;28;20178;-79
2023/09/03 10:27:35;;;;;;;11.53;5.40;;;20.00;99.90;;;;;;4977014;28;20182;-79
2023/09/03 10:30:05;;;;;;;6.70;4.57;;;20.30;99.90;;;;;;4978537;28;20166;-79
2023/09/03 10:32:32;;;;;;;6.57;5.50;;;20.10;99.90;;;;;;4977373;28;20264;-78
2023/09/03 10:34:58;;;;;;;8.03;5.80;;;20.10;99.90;;;;;;4977154;28;20182;-80
2023/09/03 10:37:38;;;;;;;5.93;5.30;;;20.30;99.90;;;;;;4976728;28;20206;-80
2023/09/03 10:40:21;;;;;;;7.30;4.63;;;20.30;99.90;;;;;;4978768;28;20197;-80
2023/09/03 10:42:50;;;;;;;6.23;4.57;;;20.20;99.90;;;;;;4977061;28;20218;-80
2023/09/03 10:45:16;;;;;;;4.80;4.07;;;20.40;99.90;;;;;;4958702;28;20187;-80
2023/09/03 10:48:04;;;;;;;6.73;5.03;;;20.40;99.90;;;;;;4958906;29;20686;-80
2023/09/03 10:50:43;;;;;;;7.03;4.80;;;20.40;99.90;;;;;;4957209;28;20206;-79
2023/09/03 10:53:29;;;;;;;6.67;4.13;;;20.50;99.90;;;;;;4957192;28;20205;-80
2023/09/03 10:56:18;;;;;;;6.93;4.33;;;20.50;99.90;;;;;;4956812;28;20183;-80
2023/09/03 10:58:57;;;;;;;7.97;3.77;;;20.60;99.90;;;;;;4974917;28;20190;-79
2023/09/03 11:01:26;;;;;;;5.63;4.07;;;20.70;99.90;;;;;;4981611;28;20175;-81
2023/09/03 11:03:53;;;;;;;5.20;4.23;;;20.70;99.90;;;;;;4977388;28;20209;-81
2023/09/03 11:06:19;;;;;;;6.07;4.40;;;20.80;1.00;;;;;;4978250;28;20181;-80
2023/09/03 11:08:46;;;;;;;4.93;3.60;;;20.80;99.90;;;;;;4977636;28;20262;-80
2023/09/03 11:11:19;;;;;;;5.93;3.90;;;20.90;99.90;;;;;;4978031;28;20166;-81
2023/09/03 11:13:50;;;;;;;4.30;3.67;;;21.10;99.90;;;;;;4977224;28;20213;-82
2023/09/03 11:16:15;;;;;;;5.43;4.03;;;21.00;99.90;;;;;;4957472;29;20694;-80
2023/09/03 11:18:48;;;;;;;8.73;4.83;;;21.20;99.90;;;;;;4958102;29;20167;-79
2023/09/03 11:21:14;;;;;;;7.33;4.23;;;21.00;99.90;;;;;;4956989;28;20191;-79
2023/09/03 11:23:39;;;;;;;5.80;3.90;;;21.10;99.90;;;;;;4957238;28;20171;-78
2023/09/03 11:26:13;;;;;;;4.53;3.87;;;21.10;99.90;;;;;;4956920;28;20178;-78
2023/09/03 11:28:38;;;;;;;5.97;3.93;;;21.20;99.90;;;;;;4957253;29;20528;-77
2023/09/03 11:31:04;;;;;;;6.17;4.00;;;21.30;99.90;;;;;;4970532;28;20174;-81
2023/09/03 11:33:30;;;;;;;5.87;3.93;;;21.30;99.90;;;;;;4978049;28;20634;-80
2023/09/03 11:35:56;;;;;;;4.60;4.17;;;21.60;99.90;;;;;;4975668;28;20178;-79
2023/09/03 11:38:26;;;;;;;4.80;3.73;;;21.40;99.90;;;;;;4973833;28;20213;-77
2023/09/03 11:40:56;;;;;;;6.00;3.53;;;21.50;99.90;;;;;;4974955;28;20167;-79
2023/09/03 11:43:22;;;;;;;5.77;3.50;;;21.70;99.90;;;;;;4973671;28;20214;-77
2023/09/03 11:45:48;;;;;;;6.13;4.40;;;21.50;99.90;;;;;;4973888;28;20186;-77
2023/09/03 11:48:13;;;;;;;6.17;4.00;;;21.70;99.90;;;;;;4973999;28;20675;-77
2023/09/03 11:50:39;;;;;;;4.60;4.13;;;21.70;99.90;;;;;;4962566;28;20630;-77
2023/09/03 11:53:05;;;;;;;5.87;4.30;;;21.80;99.90;;;;;;4955615;28;20211;-77
2023/09/03 11:55:37;;;;;;;5.13;3.33;;;21.80;99.90;;;;;;4955674;29;20230;-77
2023/09/03 11:58:06;;;;;;;5.43;4.73;;;21.80;99.90;;;;;;4955645;29;20172;-78
2023/09/03 12:00:32;;;;;;;4.90;4.40;;;21.80;99.90;;;;;;4962936;28;20178;-77
2023/09/03 12:02:59;;;;;;;5.90;4.37;;;21.80;99.90;;;;;;4973622;28;20206;-78
2023/09/03 12:05:26;;;;;;;4.87;3.77;;;21.80;99.90;;;;;;4975135;28;20548;-77
2023/09/03 12:07:52;;;;;;;5.70;3.43;;;21.80;99.90;;;;;;4974251;28;20189;-78
2023/09/03 12:10:18;;;;;;;3.77;3.37;;;21.80;99.90;;;;;;4974971;28;20174;-78
2023/09/03 12:12:45;;;;;;;4.90;3.43;;;21.90;99.90;;;;;;4974635;28;20701;-77
2023/09/03 12:15:21;;;;;;;4.97;3.90;;;21.90;99.90;;;;;;4974906;28;20173;-77
2023/09/03 12:17:47;;;;;;;4.43;3.70;;;21.90;99.90;;;;;;4973340;28;20296;-77
2023/09/03 12:20:45;;;;;;;6.13;3.90;;;22.00;99.90;;;;;;4973538;28;20174;-77
2023/09/03 12:23:14;;;;;;;7.13;3.90;;;21.80;99.90;;;;;;4965882;28;20202;-77
2023/09/03 12:25:40;;;;;;;4.93;3.50;;;21.90;99.90;;;;;;4974572;28;20173;-77
2023/09/03 12:28:07;;;;;;;5.37;3.70;;;21.90;99.90;;;;;;4974410;28;20170;-77
2023/09/03 12:30:55;;;;;;;5.17;3.60;;;22.00;99.90;;;;;;4974755;28;20239;-77
2023/09/03 12:33:25;;;;;;;5.03;3.80;;;21.90;99.90;;;;;;4972332;28;20202;-77
2023/09/03 12:36:11;;;;;;;5.60;3.97;;;22.00;99.90;;;;;;4974411;28;20617;-77